sensor_id;sensor_type;location;lat;lon;timestamp;P1;durP1;ratioP1;P2;durP2;ratioP2
54271;SDS011;40184;53.362;5.216;2024-02-23T00:00:42;19.00;;;3.65;;
54271;SDS011;40184;53.362;5.216;2024-02-23T00:03:08;21.95;;;3.60;;
54271;SDS011;40184;53.362;5.216;2024-02-23T00:05:35;14.13;;;3.42;;
54271;SDS011;40184;53.362;5.216;2024-02-23T00:08:01;13.15;;;2.67;;
54271;SDS011;40184;53.362;5.216;2024-02-23T00:10:28;17.85;;;2.47;;
54271;SDS011;40184;53.362;5.216;2024-02-23T00:12:54;18.30;;;3.45;;
54271;SDS011;40184;53.362;5.216;2024-02-23T00:15:20;23.08;;;4.13;;
54271;SDS011;40184;53.362;5.216;2024-02-23T00:17:46;33.42;;;5.70;;
54271;SDS011;40184;53.362;5.216;2024-02-23T00:20:12;27.95;;;5.80;;
54271;SDS011;40184;53.362;5.216;2024-02-23T00:22:41;35.15;;;7.50;;
54271;SDS011;40184;53.362;5.216;2024-02-23T00:25:07;29.10;;;5.85;;
54271;SDS011;40184;53.362;5.216;2024-02-23T00:27:33;29.85;;;6.03;;
54271;SDS011;40184;53.362;5.216;2024-02-23T00:29:59;29.60;;;5.70;;
54271;SDS011;40184;53.362;5.216;2024-02-23T00:32:25;37.63;;;7.13;;
54271;SDS011;40184;53.362;5.216;2024-02-23T00:34:51;35.83;;;6.50;;
54271;SDS011;40184;53.362;5.216;2024-02-23T00:37:17;24.15;;;5.50;;
54271;SDS011;40184;53.362;5.216;2024-02-23T00:39:44;17.77;;;4.03;;
54271;SDS011;40184;53.362;5.216;2024-02-23T00:42:10;23.40;;;4.97;;
54271;SDS011;40184;53.362;5.216;2024-02-23T00:44:36;18.63;;;4.93;;
54271;SDS011;40184;53.362;5.216;2024-02-23T00:47:02;28.60;;;5.53;;
54271;SDS011;40184;53.362;5.216;2024-02-23T00:49:29;24.23;;;4.47;;
54271;SDS011;40184;53.362;5.216;2024-02-23T00:51:55;30.17;;;6.70;;
54271;SDS011;40184;53.362;5.216;2024-02-23T00:54:21;30.80;;;5.50;;
54271;SDS011;40184;53.362;5.216;2024-02-23T00:56:47;24.25;;;5.65;;
54271;SDS011;40184;53.362;5.216;2024-02-23T00:59:13;33.35;;;7.40;;
54271;SDS011;40184;53.362;5.216;2024-02-23T01:01:39;22.50;;;4.57;;
54271;SDS011;40184;53.362;5.216;2024-02-23T01:04:06;27.25;;;7.00;;
54271;SDS011;40184;53.362;5.216;2024-02-23T01:06:32;31.30;;;4.45;;
54271;SDS011;40184;53.362;5.216;2024-02-23T01:08:58;26.60;;;5.55;;
54271;SDS011;40184;53.362;5.216;2024-02-23T01:11:24;25.98;;;5.13;;
54271;SDS011;40184;53.362;5.216;2024-02-23T01:13:50;23.65;;;5.55;;
54271;SDS011;40184;53.362;5.216;2024-02-23T01:16:16;21.45;;;4.50;;
54271;SDS011;40184;53.362;5.216;2024-02-23T01:18:42;15.75;;;3.67;;
54271;SDS011;40184;53.362;5.216;2024-02-23T01:21:08;30.75;;;5.35;;
54271;SDS011;40184;53.362;5.216;2024-02-23T01:23:34;20.92;;;4.50;;
54271;SDS011;40184;53.362;5.216;2024-02-23T01:26:01;25.52;;;5.38;;
54271;SDS011;40184;53.362;5.216;2024-02-23T01:28:27;19.02;;;3.90;;
54271;SDS011;40184;53.362;5.216;2024-02-23T01:30:53;25.02;;;3.88;;
54271;SDS011;40184;53.362;5.216;2024-02-23T01:33:20;22.42;;;5.72;;
54271;SDS011;40184;53.362;5.216;2024-02-23T01:35:46;22.55;;;5.68;;
54271;SDS011;40184;53.362;5.216;2024-02-23T01:38:12;25.70;;;5.40;;
54271;SDS011;40184;53.362;5.216;2024-02-23T01:40:44;20.63;;;3.65;;
54271;SDS011;40184;53.362;5.216;2024-02-23T01:43:10;26.42;;;5.30;;
54271;SDS011;40184;53.362;5.216;2024-02-23T01:45:36;19.70;;;3.60;;
54271;SDS011;40184;53.362;5.216;2024-02-23T01:48:02;13.73;;;3.42;;
54271;SDS011;40184;53.362;5.216;2024-02-23T01:50:29;14.00;;;3.28;;
54271;SDS011;40184;53.362;5.216;2024-02-23T01:52:57;21.77;;;4.18;;
54271;SDS011;40184;53.362;5.216;2024-02-23T01:55:24;21.80;;;4.68;;
54271;SDS011;40184;53.362;5.216;2024-02-23T01:57:51;22.85;;;3.90;;
54271;SDS011;40184;53.362;5.216;2024-02-23T02:00:17;17.92;;;4.05;;
54271;SDS011;40184;53.362;5.216;2024-02-23T02:02:44;23.00;;;4.70;;
54271;SDS011;40184;53.362;5.216;2024-02-23T02:05:10;20.65;;;4.97;;
54271;SDS011;40184;53.362;5.216;2024-02-23T02:07:37;21.38;;;5.63;;
54271;SDS011;40184;53.362;5.216;2024-02-23T02:10:04;26.13;;;5.72;;
54271;SDS011;40184;53.362;5.216;2024-02-23T02:12:31;22.15;;;4.38;;
54271;SDS011;40184;53.362;5.216;2024-02-23T02:14:57;17.30;;;3.40;;
54271;SDS011;40184;53.362;5.216;2024-02-23T02:17:26;21.65;;;4.68;;
54271;SDS011;40184;53.362;5.216;2024-02-23T02:19:52;13.52;;;3.55;;
54271;SDS011;40184;53.362;5.216;2024-02-23T02:22:19;23.85;;;4.65;;
54271;SDS011;40184;53.362;5.216;2024-02-23T02:24:45;27.23;;;4.38;;
54271;SDS011;40184;53.362;5.216;2024-02-23T02:27:11;16.48;;;4.00;;
54271;SDS011;40184;53.362;5.216;2024-02-23T02:29:37;20.02;;;4.80;;
54271;SDS011;40184;53.362;5.216;2024-02-23T02:32:04;14.88;;;3.53;;
54271;SDS011;40184;53.362;5.216;2024-02-23T02:34:30;25.40;;;6.03;;
54271;SDS011;40184;53.362;5.216;2024-02-23T02:36:56;15.48;;;3.33;;
54271;SDS011;40184;53.362;5.216;2024-02-23T02:39:22;16.98;;;3.92;;
54271;SDS011;40184;53.362;5.216;2024-02-23T02:41:48;20.95;;;5.78;;
54271;SDS011;40184;53.362;5.216;2024-02-23T02:44:14;16.92;;;3.90;;
54271;SDS011;40184;53.362;5.216;2024-02-23T02:46:41;23.65;;;4.35;;
54271;SDS011;40184;53.362;5.216;2024-02-23T02:49:07;18.52;;;4.00;;
54271;SDS011;40184;53.362;5.216;2024-02-23T02:51:34;16.27;;;3.10;;
54271;SDS011;40184;53.362;5.216;2024-02-23T02:54:00;15.93;;;3.72;;
54271;SDS011;40184;53.362;5.216;2024-02-23T02:56:26;15.20;;;3.50;;
54271;SDS011;40184;53.362;5.216;2024-02-23T02:58:52;22.30;;;4.30;;
54271;SDS011;40184;53.362;5.216;2024-02-23T03:01:18;25.70;;;3.75;;
54271;SDS011;40184;53.362;5.216;2024-02-23T03:03:45;14.70;;;3.42;;
54271;SDS011;40184;53.362;5.216;2024-02-23T03:06:11;19.17;;;3.20;;
54271;SDS011;40184;53.362;5.216;2024-02-23T03:08:37;17.10;;;3.15;;
54271;SDS011;40184;53.362;5.216;2024-02-23T03:11:03;19.73;;;2.97;;
54271;SDS011;40184;53.362;5.216;2024-02-23T03:13:29;15.88;;;3.22;;
54271;SDS011;40184;53.362;5.216;2024-02-23T03:15:56;13.23;;;2.58;;
54271;SDS011;40184;53.362;5.216;2024-02-23T03:18:22;18.95;;;3.75;;
54271;SDS011;40184;53.362;5.216;2024-02-23T03:20:49;18.90;;;3.65;;
54271;SDS011;40184;53.362;5.216;2024-02-23T03:23:15;23.08;;;5.30;;
54271;SDS011;40184;53.362;5.216;2024-02-23T03:25:41;15.10;;;3.15;;
54271;SDS011;40184;53.362;5.216;2024-02-23T03:28:07;12.23;;;3.05;;
54271;SDS011;40184;53.362;5.216;2024-02-23T03:30:33;15.55;;;2.72;;
54271;SDS011;40184;53.362;5.216;2024-02-23T03:32:59;15.82;;;3.78;;
54271;SDS011;40184;53.362;5.216;2024-02-23T03:35:25;17.85;;;2.72;;
54271;SDS011;40184;53.362;5.216;2024-02-23T03:37:51;12.32;;;2.88;;
54271;SDS011;40184;53.362;5.216;2024-02-23T03:40:17;18.20;;;4.65;;
54271;SDS011;40184;53.362;5.216;2024-02-23T03:42:44;16.25;;;2.45;;
54271;SDS011;40184;53.362;5.216;2024-02-23T03:45:10;19.70;;;3.35;;
54271;SDS011;40184;53.362;5.216;2024-02-23T03:47:36;18.15;;;3.03;;
54271;SDS011;40184;53.362;5.216;2024-02-23T03:50:02;16.75;;;3.33;;
54271;SDS011;40184;53.362;5.216;2024-02-23T03:52:28;14.50;;;3.63;;
54271;SDS011;40184;53.362;5.216;2024-02-23T03:54:54;22.88;;;4.10;;
54271;SDS011;40184;53.362;5.216;2024-02-23T03:57:20;18.65;;;3.00;;
54271;SDS011;40184;53.362;5.216;2024-02-23T03:59:53;26.80;;;5.28;;
54271;SDS011;40184;53.362;5.216;2024-02-23T04:02:19;23.38;;;4.70;;
54271;SDS011;40184;53.362;5.216;2024-02-23T04:04:45;22.67;;;4.10;;
54271;SDS011;40184;53.362;5.216;2024-02-23T04:07:12;19.33;;;4.88;;
54271;SDS011;40184;53.362;5.216;2024-02-23T04:09:38;30.45;;;5.40;;
54271;SDS011;40184;53.362;5.216;2024-02-23T04:12:04;20.33;;;3.83;;
54271;SDS011;40184;53.362;5.216;2024-02-23T04:14:32;14.77;;;3.92;;
54271;SDS011;40184;53.362;5.216;2024-02-23T04:17:04;17.55;;;4.55;;
54271;SDS011;40184;53.362;5.216;2024-02-23T04:19:30;19.58;;;3.75;;
54271;SDS011;40184;53.362;5.216;2024-02-23T04:21:56;24.60;;;4.50;;
54271;SDS011;40184;53.362;5.216;2024-02-23T04:24:22;19.67;;;4.38;;
54271;SDS011;40184;53.362;5.216;2024-02-23T04:26:49;23.55;;;4.88;;
54271;SDS011;40184;53.362;5.216;2024-02-23T04:29:15;26.88;;;4.07;;
54271;SDS011;40184;53.362;5.216;2024-02-23T04:31:41;23.50;;;4.65;;
54271;SDS011;40184;53.362;5.216;2024-02-23T04:34:07;21.40;;;4.50;;
54271;SDS011;40184;53.362;5.216;2024-02-23T04:36:33;20.65;;;3.85;;
54271;SDS011;40184;53.362;5.216;2024-02-23T04:38:59;20.02;;;4.00;;
54271;SDS011;40184;53.362;5.216;2024-02-23T04:41:25;24.65;;;5.07;;
54271;SDS011;40184;53.362;5.216;2024-02-23T04:43:51;27.67;;;4.60;;
54271;SDS011;40184;53.362;5.216;2024-02-23T04:46:23;23.85;;;5.32;;
54271;SDS011;40184;53.362;5.216;2024-02-23T04:48:49;18.55;;;4.07;;
54271;SDS011;40184;53.362;5.216;2024-02-23T04:51:15;31.00;;;4.47;;
54271;SDS011;40184;53.362;5.216;2024-02-23T04:53:41;17.08;;;4.22;;
54271;SDS011;40184;53.362;5.216;2024-02-23T04:56:08;21.77;;;4.80;;
54271;SDS011;40184;53.362;5.216;2024-02-23T04:58:34;21.80;;;4.00;;
54271;SDS011;40184;53.362;5.216;2024-02-23T05:01:01;18.52;;;2.42;;
54271;SDS011;40184;53.362;5.216;2024-02-23T05:03:28;24.40;;;5.05;;
54271;SDS011;40184;53.362;5.216;2024-02-23T05:05:54;18.58;;;4.32;;
54271;SDS011;40184;53.362;5.216;2024-02-23T05:08:20;16.17;;;3.05;;
54271;SDS011;40184;53.362;5.216;2024-02-23T05:10:49;11.07;;;3.88;;
54271;SDS011;40184;53.362;5.216;2024-02-23T05:13:16;19.60;;;2.90;;
54271;SDS011;40184;53.362;5.216;2024-02-23T05:15:42;20.98;;;4.53;;
54271;SDS011;40184;53.362;5.216;2024-02-23T05:18:08;17.60;;;4.40;;
54271;SDS011;40184;53.362;5.216;2024-02-23T05:20:34;26.67;;;4.28;;
54271;SDS011;40184;53.362;5.216;2024-02-23T05:23:00;23.75;;;3.83;;
54271;SDS011;40184;53.362;5.216;2024-02-23T05:25:26;25.17;;;3.47;;
54271;SDS011;40184;53.362;5.216;2024-02-23T05:27:53;19.85;;;4.72;;
54271;SDS011;40184;53.362;5.216;2024-02-23T05:30:19;22.95;;;3.65;;
54271;SDS011;40184;53.362;5.216;2024-02-23T05:32:45;17.98;;;4.80;;
54271;SDS011;40184;53.362;5.216;2024-02-23T05:35:12;21.85;;;4.15;;
54271;SDS011;40184;53.362;5.216;2024-02-23T05:37:38;23.42;;;4.53;;
54271;SDS011;40184;53.362;5.216;2024-02-23T05:40:04;19.52;;;3.50;;
54271;SDS011;40184;53.362;5.216;2024-02-23T05:42:40;23.10;;;3.55;;
54271;SDS011;40184;53.362;5.216;2024-02-23T05:45:09;20.10;;;4.35;;
54271;SDS011;40184;53.362;5.216;2024-02-23T05:47:36;18.77;;;3.63;;
54271;SDS011;40184;53.362;5.216;2024-02-23T05:50:03;13.95;;;3.10;;
54271;SDS011;40184;53.362;5.216;2024-02-23T05:52:31;16.52;;;2.88;;
54271;SDS011;40184;53.362;5.216;2024-02-23T05:54:57;18.65;;;3.58;;
54271;SDS011;40184;53.362;5.216;2024-02-23T05:57:25;18.67;;;4.03;;
54271;SDS011;40184;53.362;5.216;2024-02-23T05:59:51;19.08;;;3.33;;
54271;SDS011;40184;53.362;5.216;2024-02-23T06:02:18;29.67;;;5.47;;
54271;SDS011;40184;53.362;5.216;2024-02-23T06:04:44;15.82;;;3.17;;
54271;SDS011;40184;53.362;5.216;2024-02-23T06:07:10;20.55;;;3.70;;
54271;SDS011;40184;53.362;5.216;2024-02-23T06:09:36;18.27;;;3.95;;
54271;SDS011;40184;53.362;5.216;2024-02-23T06:12:03;13.40;;;3.03;;
54271;SDS011;40184;53.362;5.216;2024-02-23T06:14:30;28.85;;;5.47;;
54271;SDS011;40184;53.362;5.216;2024-02-23T06:16:56;12.23;;;3.10;;
54271;SDS011;40184;53.362;5.216;2024-02-23T06:19:22;18.73;;;3.28;;
54271;SDS011;40184;53.362;5.216;2024-02-23T06:21:48;29.25;;;3.63;;
54271;SDS011;40184;53.362;5.216;2024-02-23T06:24:15;19.13;;;3.60;;
54271;SDS011;40184;53.362;5.216;2024-02-23T06:26:41;20.50;;;4.20;;
54271;SDS011;40184;53.362;5.216;2024-02-23T06:29:07;17.33;;;3.55;;
54271;SDS011;40184;53.362;5.216;2024-02-23T06:31:39;15.55;;;2.83;;
54271;SDS011;40184;53.362;5.216;2024-02-23T06:34:06;21.83;;;4.85;;
54271;SDS011;40184;53.362;5.216;2024-02-23T06:36:32;19.33;;;3.35;;
54271;SDS011;40184;53.362;5.216;2024-02-23T06:38:58;16.75;;;3.40;;
54271;SDS011;40184;53.362;5.216;2024-02-23T06:41:24;17.58;;;3.60;;
54271;SDS011;40184;53.362;5.216;2024-02-23T06:43:51;18.40;;;3.38;;
54271;SDS011;40184;53.362;5.216;2024-02-23T06:46:18;23.95;;;5.55;;
54271;SDS011;40184;53.362;5.216;2024-02-23T06:48:45;18.80;;;3.78;;
54271;SDS011;40184;53.362;5.216;2024-02-23T06:51:12;18.13;;;3.20;;
54271;SDS011;40184;53.362;5.216;2024-02-23T06:53:38;30.25;;;5.25;;
54271;SDS011;40184;53.362;5.216;2024-02-23T06:56:04;30.02;;;4.70;;
54271;SDS011;40184;53.362;5.216;2024-02-23T06:58:30;22.00;;;3.70;;
54271;SDS011;40184;53.362;5.216;2024-02-23T07:00:56;24.50;;;4.15;;
54271;SDS011;40184;53.362;5.216;2024-02-23T07:03:22;17.95;;;4.53;;
54271;SDS011;40184;53.362;5.216;2024-02-23T07:05:48;26.58;;;4.78;;
54271;SDS011;40184;53.362;5.216;2024-02-23T07:08:15;20.00;;;3.78;;
54271;SDS011;40184;53.362;5.216;2024-02-23T07:10:41;25.25;;;4.68;;
54271;SDS011;40184;53.362;5.216;2024-02-23T07:13:07;25.42;;;4.65;;
54271;SDS011;40184;53.362;5.216;2024-02-23T07:15:34;25.70;;;4.78;;
54271;SDS011;40184;53.362;5.216;2024-02-23T07:18:03;16.17;;;3.03;;
54271;SDS011;40184;53.362;5.216;2024-02-23T07:20:30;21.65;;;3.45;;
54271;SDS011;40184;53.362;5.216;2024-02-23T07:22:56;19.10;;;3.55;;
54271;SDS011;40184;53.362;5.216;2024-02-23T07:25:22;14.15;;;2.50;;
54271;SDS011;40184;53.362;5.216;2024-02-23T07:27:48;17.77;;;2.90;;
54271;SDS011;40184;53.362;5.216;2024-02-23T07:30:15;20.65;;;3.35;;
54271;SDS011;40184;53.362;5.216;2024-02-23T07:32:44;14.23;;;2.53;;
54271;SDS011;40184;53.362;5.216;2024-02-23T07:35:14;14.70;;;1.95;;
54271;SDS011;40184;53.362;5.216;2024-02-23T07:37:40;11.13;;;2.38;;
54271;SDS011;40184;53.362;5.216;2024-02-23T07:40:06;13.00;;;2.17;;
54271;SDS011;40184;53.362;5.216;2024-02-23T07:42:33;11.35;;;2.38;;
54271;SDS011;40184;53.362;5.216;2024-02-23T07:45:02;9.75;;;1.90;;
54271;SDS011;40184;53.362;5.216;2024-02-23T07:47:29;11.02;;;2.28;;
54271;SDS011;40184;53.362;5.216;2024-02-23T07:49:55;13.30;;;2.30;;
54271;SDS011;40184;53.362;5.216;2024-02-23T07:52:21;16.75;;;2.75;;
54271;SDS011;40184;53.362;5.216;2024-02-23T07:54:53;21.70;;;3.72;;
54271;SDS011;40184;53.362;5.216;2024-02-23T07:57:19;15.30;;;3.13;;
54271;SDS011;40184;53.362;5.216;2024-02-23T07:59:46;18.80;;;3.92;;
54271;SDS011;40184;53.362;5.216;2024-02-23T08:02:12;22.02;;;2.72;;
54271;SDS011;40184;53.362;5.216;2024-02-23T08:04:39;16.60;;;2.92;;
54271;SDS011;40184;53.362;5.216;2024-02-23T08:07:05;9.52;;;2.25;;
54271;SDS011;40184;53.362;5.216;2024-02-23T08:09:31;9.07;;;1.83;;
54271;SDS011;40184;53.362;5.216;2024-02-23T08:11:57;13.65;;;2.65;;
54271;SDS011;40184;53.362;5.216;2024-02-23T08:14:23;23.20;;;3.15;;
54271;SDS011;40184;53.362;5.216;2024-02-23T08:16:49;10.85;;;2.17;;
54271;SDS011;40184;53.362;5.216;2024-02-23T08:19:15;11.40;;;2.95;;
54271;SDS011;40184;53.362;5.216;2024-02-23T08:21:42;12.48;;;3.08;;
54271;SDS011;40184;53.362;5.216;2024-02-23T08:24:09;7.88;;;3.20;;
54271;SDS011;40184;53.362;5.216;2024-02-23T08:26:35;8.25;;;2.88;;
54271;SDS011;40184;53.362;5.216;2024-02-23T08:29:03;15.70;;;2.83;;
54271;SDS011;40184;53.362;5.216;2024-02-23T08:31:30;12.30;;;3.35;;
54271;SDS011;40184;53.362;5.216;2024-02-23T08:33:56;12.88;;;3.55;;
54271;SDS011;40184;53.362;5.216;2024-02-23T08:36:22;18.38;;;3.67;;
54271;SDS011;40184;53.362;5.216;2024-02-23T08:38:48;17.15;;;4.25;;
54271;SDS011;40184;53.362;5.216;2024-02-23T08:41:14;10.57;;;3.05;;
54271;SDS011;40184;53.362;5.216;2024-02-23T08:43:41;11.52;;;3.47;;
54271;SDS011;40184;53.362;5.216;2024-02-23T08:46:07;25.65;;;7.35;;
54271;SDS011;40184;53.362;5.216;2024-02-23T08:48:33;11.82;;;3.90;;
54271;SDS011;40184;53.362;5.216;2024-02-23T08:50:59;9.57;;;2.75;;
54271;SDS011;40184;53.362;5.216;2024-02-23T08:53:25;8.35;;;3.28;;
54271;SDS011;40184;53.362;5.216;2024-02-23T08:55:51;14.77;;;4.25;;
54271;SDS011;40184;53.362;5.216;2024-02-23T08:58:17;11.25;;;3.50;;
54271;SDS011;40184;53.362;5.216;2024-02-23T09:00:43;17.80;;;4.43;;
54271;SDS011;40184;53.362;5.216;2024-02-23T09:03:09;13.45;;;4.18;;
54271;SDS011;40184;53.362;5.216;2024-02-23T09:05:35;10.30;;;3.83;;
54271;SDS011;40184;53.362;5.216;2024-02-23T09:08:01;11.57;;;3.78;;
54271;SDS011;40184;53.362;5.216;2024-02-23T09:10:27;9.73;;;3.20;;
54271;SDS011;40184;53.362;5.216;2024-02-23T09:12:53;13.98;;;3.83;;
54271;SDS011;40184;53.362;5.216;2024-02-23T09:15:19;16.20;;;4.05;;
54271;SDS011;40184;53.362;5.216;2024-02-23T09:17:46;13.55;;;4.22;;
54271;SDS011;40184;53.362;5.216;2024-02-23T09:20:12;10.20;;;3.75;;
54271;SDS011;40184;53.362;5.216;2024-02-23T09:22:38;17.25;;;5.25;;
54271;SDS011;40184;53.362;5.216;2024-02-23T09:25:05;16.38;;;4.40;;
54271;SDS011;40184;53.362;5.216;2024-02-23T09:27:31;17.05;;;4.78;;
54271;SDS011;40184;53.362;5.216;2024-02-23T09:29:57;14.00;;;3.95;;
54271;SDS011;40184;53.362;5.216;2024-02-23T09:32:24;14.43;;;3.83;;
54271;SDS011;40184;53.362;5.216;2024-02-23T09:34:50;10.98;;;4.43;;
54271;SDS011;40184;53.362;5.216;2024-02-23T09:37:16;9.07;;;3.05;;
54271;SDS011;40184;53.362;5.216;2024-02-23T09:39:42;11.93;;;2.95;;
54271;SDS011;40184;53.362;5.216;2024-02-23T09:42:09;18.80;;;3.42;;
54271;SDS011;40184;53.362;5.216;2024-02-23T09:44:38;14.60;;;2.28;;
54271;SDS011;40184;53.362;5.216;2024-02-23T09:47:05;8.65;;;2.85;;
54271;SDS011;40184;53.362;5.216;2024-02-23T09:49:37;12.93;;;2.70;;
54271;SDS011;40184;53.362;5.216;2024-02-23T09:52:05;10.77;;;2.88;;
54271;SDS011;40184;53.362;5.216;2024-02-23T09:54:33;8.85;;;2.15;;
54271;SDS011;40184;53.362;5.216;2024-02-23T09:56:59;10.90;;;3.17;;
54271;SDS011;40184;53.362;5.216;2024-02-23T09:59:26;7.13;;;1.33;;
54271;SDS011;40184;53.362;5.216;2024-02-23T10:01:53;5.32;;;1.20;;
54271;SDS011;40184;53.362;5.216;2024-02-23T10:04:19;6.88;;;1.90;;
54271;SDS011;40184;53.362;5.216;2024-02-23T10:06:45;4.03;;;1.83;;
54271;SDS011;40184;53.362;5.216;2024-02-23T10:09:11;8.43;;;2.55;;
54271;SDS011;40184;53.362;5.216;2024-02-23T10:11:38;7.03;;;2.35;;
54271;SDS011;40184;53.362;5.216;2024-02-23T10:14:04;8.05;;;2.50;;
54271;SDS011;40184;53.362;5.216;2024-02-23T10:16:30;10.30;;;2.53;;
54271;SDS011;40184;53.362;5.216;2024-02-23T10:18:57;8.32;;;2.50;;
54271;SDS011;40184;53.362;5.216;2024-02-23T10:21:23;8.80;;;3.50;;
54271;SDS011;40184;53.362;5.216;2024-02-23T10:23:50;7.25;;;2.03;;
54271;SDS011;40184;53.362;5.216;2024-02-23T10:26:17;11.13;;;2.53;;
54271;SDS011;40184;53.362;5.216;2024-02-23T10:28:45;11.60;;;3.45;;
54271;SDS011;40184;53.362;5.216;2024-02-23T10:31:16;12.18;;;2.25;;
54271;SDS011;40184;53.362;5.216;2024-02-23T10:33:42;15.88;;;2.90;;
54271;SDS011;40184;53.362;5.216;2024-02-23T10:36:10;15.60;;;2.97;;
54271;SDS011;40184;53.362;5.216;2024-02-23T10:38:37;11.52;;;2.30;;
54271;SDS011;40184;53.362;5.216;2024-02-23T10:41:05;12.80;;;3.63;;
54271;SDS011;40184;53.362;5.216;2024-02-23T10:43:36;12.80;;;2.38;;
54271;SDS011;40184;53.362;5.216;2024-02-23T10:46:07;13.50;;;2.95;;
54271;SDS011;40184;53.362;5.216;2024-02-23T10:48:38;11.07;;;2.53;;
54271;SDS011;40184;53.362;5.216;2024-02-23T10:51:05;12.13;;;2.33;;
54271;SDS011;40184;53.362;5.216;2024-02-23T10:53:31;14.80;;;2.60;;
54271;SDS011;40184;53.362;5.216;2024-02-23T10:55:57;22.35;;;3.42;;
54271;SDS011;40184;53.362;5.216;2024-02-23T10:58:23;17.15;;;2.83;;
54271;SDS011;40184;53.362;5.216;2024-02-23T11:00:49;12.30;;;3.13;;
54271;SDS011;40184;53.362;5.216;2024-02-23T11:03:16;17.23;;;3.35;;
54271;SDS011;40184;53.362;5.216;2024-02-23T11:05:48;13.73;;;2.88;;
54271;SDS011;40184;53.362;5.216;2024-02-23T11:08:17;15.82;;;4.55;;
54271;SDS011;40184;53.362;5.216;2024-02-23T11:10:51;15.38;;;3.40;;
54271;SDS011;40184;53.362;5.216;2024-02-23T11:13:17;18.42;;;3.20;;
54271;SDS011;40184;53.362;5.216;2024-02-23T11:15:43;29.77;;;3.53;;
54271;SDS011;40184;53.362;5.216;2024-02-23T11:18:22;17.23;;;4.90;;
54271;SDS011;40184;53.362;5.216;2024-02-23T11:20:55;11.15;;;2.70;;
54271;SDS011;40184;53.362;5.216;2024-02-23T11:23:24;14.75;;;3.28;;
54271;SDS011;40184;53.362;5.216;2024-02-23T11:28:28;17.13;;;4.20;;
54271;SDS011;40184;53.362;5.216;2024-02-23T11:30:55;19.25;;;3.80;;
54271;SDS011;40184;53.362;5.216;2024-02-23T11:33:28;17.67;;;3.80;;
54271;SDS011;40184;53.362;5.216;2024-02-23T11:36:07;17.77;;;3.65;;
54271;SDS011;40184;53.362;5.216;2024-02-23T11:38:33;23.50;;;4.18;;
54271;SDS011;40184;53.362;5.216;2024-02-23T11:41:00;18.23;;;4.88;;
54271;SDS011;40184;53.362;5.216;2024-02-23T11:43:26;14.48;;;3.00;;
54271;SDS011;40184;53.362;5.216;2024-02-23T11:45:53;21.00;;;4.20;;
54271;SDS011;40184;53.362;5.216;2024-02-23T11:48:19;23.83;;;4.13;;
54271;SDS011;40184;53.362;5.216;2024-02-23T11:50:47;21.63;;;4.18;;
54271;SDS011;40184;53.362;5.216;2024-02-23T11:53:14;14.50;;;3.60;;
54271;SDS011;40184;53.362;5.216;2024-02-23T11:55:40;19.80;;;3.85;;
54271;SDS011;40184;53.362;5.216;2024-02-23T11:58:06;16.20;;;3.40;;
54271;SDS011;40184;53.362;5.216;2024-02-23T12:00:34;18.58;;;3.88;;
54271;SDS011;40184;53.362;5.216;2024-02-23T12:03:00;11.52;;;2.67;;
54271;SDS011;40184;53.362;5.216;2024-02-23T12:05:26;16.45;;;3.10;;
54271;SDS011;40184;53.362;5.216;2024-02-23T12:07:53;15.52;;;3.03;;
54271;SDS011;40184;53.362;5.216;2024-02-23T12:10:19;13.55;;;3.13;;
54271;SDS011;40184;53.362;5.216;2024-02-23T12:12:45;15.40;;;4.07;;
54271;SDS011;40184;53.362;5.216;2024-02-23T12:15:12;16.80;;;3.65;;
54271;SDS011;40184;53.362;5.216;2024-02-23T12:17:46;10.23;;;2.65;;
54271;SDS011;40184;53.362;5.216;2024-02-23T12:20:12;10.15;;;2.25;;
54271;SDS011;40184;53.362;5.216;2024-02-23T12:22:38;7.80;;;2.53;;
54271;SDS011;40184;53.362;5.216;2024-02-23T12:25:06;9.88;;;2.38;;
54271;SDS011;40184;53.362;5.216;2024-02-23T12:27:32;7.45;;;2.30;;
54271;SDS011;40184;53.362;5.216;2024-02-23T12:29:58;8.55;;;1.30;;
54271;SDS011;40184;53.362;5.216;2024-02-23T12:32:24;10.05;;;1.88;;
54271;SDS011;40184;53.362;5.216;2024-02-23T12:34:52;11.32;;;2.00;;
54271;SDS011;40184;53.362;5.216;2024-02-23T12:37:18;11.05;;;2.33;;
54271;SDS011;40184;53.362;5.216;2024-02-23T12:39:44;14.10;;;2.60;;
54271;SDS011;40184;53.362;5.216;2024-02-23T12:42:10;7.78;;;2.05;;
54271;SDS011;40184;53.362;5.216;2024-02-23T12:44:36;13.27;;;3.35;;
54271;SDS011;40184;53.362;5.216;2024-02-23T12:47:02;10.43;;;1.90;;
54271;SDS011;40184;53.362;5.216;2024-02-23T12:49:28;19.17;;;3.38;;
54271;SDS011;40184;53.362;5.216;2024-02-23T12:51:55;13.02;;;2.13;;
54271;SDS011;40184;53.362;5.216;2024-02-23T12:54:21;12.02;;;2.40;;
54271;SDS011;40184;53.362;5.216;2024-02-23T12:56:47;9.70;;;1.77;;
54271;SDS011;40184;53.362;5.216;2024-02-23T12:59:14;14.25;;;3.10;;
54271;SDS011;40184;53.362;5.216;2024-02-23T13:01:41;10.50;;;1.77;;
54271;SDS011;40184;53.362;5.216;2024-02-23T13:04:07;13.70;;;2.10;;
54271;SDS011;40184;53.362;5.216;2024-02-23T13:06:38;11.20;;;2.28;;
54271;SDS011;40184;53.362;5.216;2024-02-23T13:09:05;9.63;;;1.92;;
54271;SDS011;40184;53.362;5.216;2024-02-23T13:11:34;9.48;;;3.25;;
54271;SDS011;40184;53.362;5.216;2024-02-23T13:14:00;10.65;;;1.98;;
54271;SDS011;40184;53.362;5.216;2024-02-23T13:16:27;7.80;;;2.30;;
54271;SDS011;40184;53.362;5.216;2024-02-23T13:18:53;17.33;;;2.75;;
54271;SDS011;40184;53.362;5.216;2024-02-23T13:21:19;6.38;;;1.38;;
54271;SDS011;40184;53.362;5.216;2024-02-23T13:23:45;17.10;;;3.20;;
54271;SDS011;40184;53.362;5.216;2024-02-23T13:26:11;8.88;;;1.88;;
54271;SDS011;40184;53.362;5.216;2024-02-23T13:28:39;10.50;;;2.40;;
54271;SDS011;40184;53.362;5.216;2024-02-23T13:31:06;12.05;;;2.65;;
54271;SDS011;40184;53.362;5.216;2024-02-23T13:33:32;14.10;;;2.53;;
54271;SDS011;40184;53.362;5.216;2024-02-23T13:35:58;17.13;;;3.97;;
54271;SDS011;40184;53.362;5.216;2024-02-23T13:38:24;20.48;;;3.78;;
54271;SDS011;40184;53.362;5.216;2024-02-23T13:40:51;17.08;;;2.92;;
54271;SDS011;40184;53.362;5.216;2024-02-23T13:43:17;26.80;;;3.78;;
54271;SDS011;40184;53.362;5.216;2024-02-23T13:45:50;11.02;;;2.53;;
54271;SDS011;40184;53.362;5.216;2024-02-23T13:48:19;12.93;;;2.65;;
54271;SDS011;40184;53.362;5.216;2024-02-23T13:50:48;10.75;;;2.00;;
54271;SDS011;40184;53.362;5.216;2024-02-23T13:53:15;10.18;;;2.38;;
54271;SDS011;40184;53.362;5.216;2024-02-23T13:55:41;11.18;;;2.70;;
54271;SDS011;40184;53.362;5.216;2024-02-23T13:58:09;16.08;;;2.63;;
54271;SDS011;40184;53.362;5.216;2024-02-23T14:00:35;17.00;;;3.20;;
54271;SDS011;40184;53.362;5.216;2024-02-23T14:03:01;15.57;;;2.53;;
54271;SDS011;40184;53.362;5.216;2024-02-23T14:05:27;12.07;;;2.53;;
54271;SDS011;40184;53.362;5.216;2024-02-23T14:07:53;20.77;;;3.53;;
54271;SDS011;40184;53.362;5.216;2024-02-23T14:10:20;12.02;;;2.83;;
54271;SDS011;40184;53.362;5.216;2024-02-23T14:12:46;11.18;;;2.33;;
54271;SDS011;40184;53.362;5.216;2024-02-23T14:15:14;11.07;;;2.30;;
54271;SDS011;40184;53.362;5.216;2024-02-23T14:17:40;12.07;;;2.70;;
54271;SDS011;40184;53.362;5.216;2024-02-23T14:20:06;16.83;;;2.83;;
54271;SDS011;40184;53.362;5.216;2024-02-23T14:22:33;19.13;;;3.78;;
54271;SDS011;40184;53.362;5.216;2024-02-23T14:24:59;17.17;;;3.70;;
54271;SDS011;40184;53.362;5.216;2024-02-23T14:27:25;11.75;;;2.00;;
54271;SDS011;40184;53.362;5.216;2024-02-23T14:29:53;9.23;;;1.60;;
54271;SDS011;40184;53.362;5.216;2024-02-23T14:32:19;13.40;;;3.40;;
54271;SDS011;40184;53.362;5.216;2024-02-23T14:34:46;9.02;;;1.95;;